Time;durP1;ratioP1;P1;durP2;ratioP2;P2;SDS_P1;SDS_P2;PMS_P1;PMS_P2;Temp;Humidity;BMP_temperature;BMP_pressure;BME280_temperature;BME280_humidity;BME280_pressure;Samples;Min_cycle;Max_cycle;Signal;HPM_P1;HPM_P2
2023/06/10 00:01:16;;;;;;;20.40;12.67;;;17.90;90.00;;;;;;5067496;28;20864;-60
2023/06/10 00:03:44;;;;;;;15.00;13.50;;;17.90;89.50;;;;;;5066411;28;20600;-60
2023/06/10 00:06:11;;;;;;;14.60;12.43;;;17.90;89.70;;;;;;5064475;28;20480;-60
2023/06/10 00:08:39;;;;;;;14.80;12.57;;;17.80;89.50;;;;;;5062922;28;20488;-60
2023/06/10 00:11:06;;;;;;;14.50;11.87;;;17.70;90.10;;;;;;5064792;28;20877;-60
2023/06/10 00:13:33;;;;;;;15.10;13.50;;;17.60;90.30;;;;;;5065128;28;20479;-60
2023/06/10 00:16:00;;;;;;;12.83;11.63;;;17.40;90.50;;;;;;5061294;28;20834;-60
2023/06/10 00:18:29;;;;;;;18.23;14.60;;;17.30;90.60;;;;;;5062815;28;20704;-60
2023/06/10 00:20:57;;;;;;;13.93;12.40;;;17.20;90.40;;;;;;5062221;28;20476;-60
2023/06/10 00:23:24;;;;;;;17.20;14.30;;;17.20;90.70;;;;;;5063363;28;20472;-60
2023/06/10 00:25:51;;;;;;;13.83;12.50;;;17.20;90.70;;;;;;5064751;28;20475;-60
2023/06/10 00:28:18;;;;;;;16.93;13.50;;;17.10;90.90;;;;;;5061149;28;20473;-60
2023/06/10 00:30:45;;;;;;;18.60;12.60;;;17.10;91.10;;;;;;5061602;28;20480;-60
2023/06/10 00:33:12;;;;;;;14.40;12.63;;;17.00;90.80;;;;;;5064935;28;20481;-60
2023/06/10 00:35:38;;;;;;;16.50;13.27;;;16.90;91.20;;;;;;5054610;28;20956;-60
2023/06/10 00:38:07;;;;;;;18.40;14.37;;;16.80;91.50;;;;;;5062700;28;20856;-60
2023/06/10 00:40:39;;;;;;;18.73;14.77;;;16.80;91.40;;;;;;5061736;28;20479;-60
2023/06/10 00:43:06;;;;;;;14.40;13.00;;;16.80;91.60;;;;;;5066793;28;20478;-60
2023/06/10 00:45:33;;;;;;;16.30;14.60;;;16.80;91.70;;;;;;5067375;28;20833;-60
2023/06/10 00:48:00;;;;;;;16.27;13.60;;;16.80;91.90;;;;;;5057628;28;20471;-60
2023/06/10 00:50:27;;;;;;;16.83;15.13;;;16.90;91.90;;;;;;5054975;28;20485;-60
2023/06/10 00:52:55;;;;;;;15.63;12.77;;;16.90;91.40;;;;;;5058030;28;20478;-60
2023/06/10 00:55:24;;;;;;;19.73;14.93;;;16.80;91.40;;;;;;5055398;28;20867;-60
2023/06/10 00:57:52;;;;;;;22.67;14.30;;;16.80;91.40;;;;;;5054681;28;20806;-60
2023/06/10 01:00:19;;;;;;;31.77;17.43;;;16.70;91.40;;;;;;5056168;28;20525;-60
2023/06/10 01:02:46;;;;;;;17.90;14.93;;;16.80;91.50;;;;;;5057506;28;20836;-60
2023/06/10 01:05:13;;;;;;;23.30;14.47;;;16.70;91.80;;;;;;5055132;28;20473;-60
2023/06/10 01:07:46;;;;;;;21.80;15.13;;;16.70;91.90;;;;;;5044746;28;20544;-60
2023/06/10 01:10:19;;;;;;;21.20;16.37;;;16.80;92.00;;;;;;5058838;28;20824;-60
2023/06/10 01:12:53;;;;;;;20.57;15.60;;;16.80;91.80;;;;;;5043665;28;20475;-60
2023/06/10 01:15:21;;;;;;;34.03;19.43;;;16.90;92.00;;;;;;5046695;28;20472;-60
2023/06/10 01:17:57;;;;;;;30.47;14.93;;;16.90;91.80;;;;;;5054657;28;20484;-60
2023/06/10 01:20:24;;;;;;;26.27;18.13;;;16.90;92.00;;;;;;5041527;28;21274;-60
2023/06/10 01:22:54;;;;;;;23.60;14.97;;;;;;;;;;5044266;28;21215;-60
2023/06/10 01:25:27;;;;;;;33.70;19.90;;;17.00;92.40;;;;;;5054541;28;20477;-59
2023/06/10 01:27:59;;;;;;;32.50;17.27;;;17.00;92.30;;;;;;5056279;28;21057;-60
2023/06/10 01:30:30;;;;;;;25.60;17.47;;;17.10;92.30;;;;;;5054104;28;20782;-60
2023/06/10 01:33:00;;;;;;;27.27;17.67;;;17.00;92.40;;;;;;5056981;28;20486;-60
2023/06/10 01:35:30;;;;;;;51.00;24.10;;;17.10;92.40;;;;;;5053102;28;20844;-60
2023/06/10 01:38:00;;;;;;;28.63;18.17;;;17.10;92.40;;;;;;5055737;28;20484;-60
2023/06/10 01:40:29;;;;;;;44.00;22.63;;;17.10;92.30;;;;;;5054377;28;20483;-60
2023/06/10 01:42:57;;;;;;;32.07;18.63;;;17.20;92.20;;;;;;5056220;28;20555;-60
2023/06/10 01:45:24;;;;;;;46.27;21.67;;;17.20;92.10;;;;;;5055796;28;20480;-60
2023/06/10 01:47:50;;;;;;;34.83;18.50;;;17.20;92.20;;;;;;5054902;28;20550;-60
2023/06/10 01:50:18;;;;;;;27.47;17.43;;;17.20;92.20;;;;;;5055544;28;20476;-60
2023/06/10 01:52:45;;;;;;;23.43;17.67;;;17.20;92.20;;;;;;5054487;28;20486;-60
2023/06/10 01:55:13;;;;;;;25.60;16.63;;;17.20;92.10;;;;;;5055974;28;20481;-60
2023/06/10 01:57:40;;;;;;;22.40;17.00;;;17.10;92.20;;;;;;5054706;28;20499;-60
2023/06/10 02:00:08;;;;;;;39.93;19.03;;;17.20;92.20;;;;;;5055669;28;20998;-60
2023/06/10 02:02:35;;;;;;;35.83;20.33;;;17.20;92.30;;;;;;5055402;28;20576;-60
2023/06/10 02:05:02;;;;;;;45.10;18.27;;;17.20;92.10;;;;;;5056564;28;20488;-60
2023/06/10 02:07:29;;;;;;;45.30;22.03;;;17.20;92.10;;;;;;5053957;28;20491;-60
2023/06/10 02:09:56;;;;;;;28.10;18.00;;;17.20;91.80;;;;;;5054292;28;21090;-60
2023/06/10 02:12:24;;;;;;;42.13;20.87;;;17.20;91.90;;;;;;5053948;28;20476;-60
2023/06/10 02:14:51;;;;;;;32.90;18.23;;;17.20;91.90;;;;;;5050872;28;20969;-60
2023/06/10 02:17:19;;;;;;;32.73;18.37;;;17.10;91.90;;;;;;5043055;28;20964;-60
2023/06/10 02:19:52;;;;;;;25.77;17.40;;;17.10;92.00;;;;;;5053484;28;20485;-60
2023/06/10 02:22:20;;;;;;;42.17;21.00;;;17.00;91.80;;;;;;5056030;28;20680;-60
2023/06/10 02:24:47;;;;;;;29.70;18.70;;;17.00;91.70;;;;;;5051320;28;20510;-60
2023/06/10 02:27:14;;;;;;;26.27;16.77;;;17.00;91.80;;;;;;5047337;28;20531;-60
2023/06/10 02:29:43;;;;;;;28.83;18.17;;;17.00;91.70;;;;;;5054534;28;20822;-60
2023/06/10 02:32:10;;;;;;;31.97;19.70;;;16.90;91.90;;;;;;5043788;28;20557;-60
2023/06/10 02:34:37;;;;;;;21.90;16.70;;;16.80;92.10;;;;;;5056249;28;22743;-60
2023/06/10 02:37:05;;;;;;;29.57;17.03;;;16.90;92.20;;;;;;5054426;28;20480;-60
2023/06/10 02:39:32;;;;;;;38.83;21.47;;;16.80;92.30;;;;;;5053606;28;21015;-60
2023/06/10 02:41:58;;;;;;;36.97;21.67;;;16.80;92.30;;;;;;5054068;28;21252;-60
2023/06/10 02:44:25;;;;;;;39.47;22.00;;;16.80;92.20;;;;;;5053883;28;21022;-60
2023/06/10 02:46:53;;;;;;;30.87;19.63;;;16.80;92.40;;;;;;5053421;28;20595;-60
2023/06/10 02:49:20;;;;;;;44.33;22.40;;;16.70;92.40;;;;;;5053658;28;20480;-60
2023/06/10 02:51:47;;;;;;;28.90;18.53;;;16.70;92.30;;;;;;5054936;28;20490;-60
2023/06/10 02:54:14;;;;;;;27.93;18.20;;;16.70;92.30;;;;;;5054812;28;20846;-60
2023/06/10 02:56:41;;;;;;;22.80;16.90;;;16.60;92.30;;;;;;5054002;28;20506;-60
2023/06/10 02:59:08;;;;;;;30.90;19.47;;;16.60;92.30;;;;;;5052438;28;20472;-60
2023/06/10 03:01:36;;;;;;;32.20;19.07;;;16.60;92.30;;;;;;5053571;28;20499;-60
2023/06/10 03:04:05;;;;;;;27.67;17.53;;;16.60;92.40;;;;;;5054630;28;20486;-60
2023/06/10 03:06:33;;;;;;;43.90;22.30;;;16.60;92.40;;;;;;5053178;28;20502;-60
2023/06/10 03:09:00;;;;;;;27.30;18.20;;;16.50;92.40;;;;;;5054259;28;20487;-60
2023/06/10 03:11:27;;;;;;;46.40;24.03;;;16.50;92.30;;;;;;5054251;28;20476;-60
2023/06/10 03:13:55;;;;;;;30.53;19.80;;;16.40;92.30;;;;;;5055961;28;20531;-60
2023/06/10 03:16:21;;;;;;;37.03;21.03;;;16.40;92.40;;;;;;5042298;28;20544;-60
2023/06/10 03:18:49;;;;;;;29.77;18.47;;;16.40;92.50;;;;;;5052067;28;20471;-60
2023/06/10 03:21:17;;;;;;;37.60;19.97;;;16.40;92.60;;;;;;5036896;28;20781;-60
2023/06/10 03:23:44;;;;;;;25.80;17.60;;;16.30;92.70;;;;;;5050182;28;20502;-60
2023/06/10 03:26:14;;;;;;;34.43;18.87;;;16.30;92.70;;;;;;5055085;28;20476;-60
2023/06/10 03:28:41;;;;;;;27.47;18.87;;;16.30;92.80;;;;;;5053251;28;20475;-60
2023/06/10 03:31:07;;;;;;;37.13;18.10;;;16.30;92.90;;;;;;5054822;28;20480;-60
2023/06/10 03:33:35;;;;;;;34.03;18.53;;;16.40;92.90;;;;;;5053878;28;20483;-60
2023/06/10 03:36:02;;;;;;;33.43;18.20;;;16.40;92.80;;;;;;5053705;28;20553;-60
2023/06/10 03:38:30;;;;;;;35.53;20.90;;;16.40;92.80;;;;;;5051449;28;20495;-60
2023/06/10 03:40:57;;;;;;;28.93;17.90;;;16.40;92.50;;;;;;5042986;28;21093;-59
2023/06/10 03:43:24;;;;;;;46.07;22.30;;;16.30;91.90;;;;;;5053203;28;21040;-59
2023/06/10 03:45:51;;;;;;;29.13;16.27;;;16.00;91.90;;;;;;5054654;28;20486;-60
2023/06/10 03:48:18;;;;;;;43.00;20.93;;;15.80;92.50;;;;;;5051588;28;20545;-60
2023/06/10 03:50:47;;;;;;;35.87;19.13;;;15.60;93.40;;;;;;5055626;28;20503;-59
2023/06/10 03:53:14;;;;;;;36.17;18.57;;;15.30;93.50;;;;;;5054920;28;20565;-60
2023/06/10 03:55:42;;;;;;;38.30;21.30;;;15.30;93.70;;;;;;5043766;28;20841;-59
2023/06/10 03:58:09;;;;;;;38.10;20.30;;;15.20;93.90;;;;;;5054406;28;20480;-59
2023/06/10 04:00:41;;;;;;;38.97;20.10;;;17.60;95.30;;;;;;5053253;28;20734;-59
2023/06/10 04:03:08;;;;;;;32.43;17.77;;;15.20;94.20;;;;;;5052437;28;20579;-60
2023/06/10 04:05:36;;;;;;;51.30;22.53;;;15.30;94.10;;;;;;5048098;28;20509;-59
2023/06/10 04:08:03;;;;;;;38.60;18.70;;;15.40;93.80;;;;;;5053512;28;20486;-59
2023/06/10 04:10:30;;;;;;;49.90;22.10;;;15.40;93.80;;;;;;5045818;28;20488;-59
2023/06/10 04:12:58;;;;;;;33.77;18.23;;;15.40;93.80;;;;;;5055477;28;20471;-59
2023/06/10 04:15:25;;;;;;;68.60;25.10;;;15.50;93.60;;;;;;5052820;28;20471;-59
2023/06/10 04:17:52;;;;;;;47.00;20.60;;;15.60;93.40;;;;;;5053543;28;20858;-60
2023/06/10 04:20:19;;;;;;;50.73;22.23;;;;;;;;;;5057187;28;20710;-59
2023/06/10 04:22:46;;;;;;;34.73;18.80;;;15.60;93.80;;;;;;5056080;28;20832;-59
2023/06/10 04:25:13;;;;;;;37.50;20.60;;;15.70;93.80;;;;;;5055191;28;20479;-59
2023/06/10 04:27:40;;;;;;;39.93;20.43;;;;;;;;;;5057069;28;20776;-59
2023/06/10 04:30:09;;;;;;;34.77;18.67;;;15.80;93.70;;;;;;5058550;28;20713;-59
2023/06/10 04:32:36;;;;;;;39.90;18.97;;;15.60;93.80;;;;;;5055867;28;20484;-59
2023/06/10 04:35:03;;;;;;;34.03;17.93;;;15.80;94.00;;;;;;5057712;28;20491;-60
2023/06/10 04:37:30;;;;;;;61.53;25.93;;;15.90;93.80;;;;;;5051132;28;20568;-59
2023/06/10 04:39:56;;;;;;;31.40;18.37;;;15.90;93.70;;;;;;5055976;28;20757;-60
2023/06/10 04:42:23;;;;;;;66.37;27.17;;;16.00;93.90;;;;;;5046054;28;20478;-59
2023/06/10 04:44:50;;;;;;;38.87;20.57;;;16.00;93.60;;;;;;5058059;28;20483;-59
2023/06/10 04:47:18;;;;;;;34.47;18.07;;;16.10;93.60;;;;;;5056169;28;20870;-59
2023/06/10 04:49:45;;;;;;;43.13;20.17;;;16.10;93.80;;;;;;5056938;28;20483;-59
2023/06/10 04:52:13;;;;;;;29.83;18.07;;;16.10;94.00;;;;;;5055029;28;20475;-60
2023/06/10 04:54:40;;;;;;;30.73;18.80;;;16.10;93.80;;;;;;5056436;28;20709;-60
2023/06/10 04:57:08;;;;;;;41.30;21.20;;;16.20;93.90;;;;;;5057053;28;20798;-59
2023/06/10 04:59:37;;;;;;;31.63;19.57;;;16.20;94.20;;;;;;5055545;28;20515;-60
2023/06/10 05:02:04;;;;;;;37.73;20.60;;;16.30;94.30;;;;;;5057292;28;20861;-59
2023/06/10 05:04:32;;;;;;;63.83;23.30;;;16.50;94.60;;;;;;5045456;28;20524;-59
2023/06/10 05:07:00;;;;;;;32.13;18.50;;;16.50;94.80;;;;;;5059261;28;20487;-59
2023/06/10 05:09:27;;;;;;;53.60;24.10;;;17.80;95.80;;;;;;5043011;28;20475;-59
2023/06/10 05:11:54;;;;;;;37.40;19.50;;;16.70;95.00;;;;;;5054036;28;20596;-59
2023/06/10 05:14:21;;;;;;;49.00;20.57;;;16.80;94.80;;;;;;5053743;28;20475;-59
2023/06/10 05:16:48;;;;;;;29.57;17.87;;;16.90;95.30;;;;;;5055854;28;20474;-59
2023/06/10 05:19:16;;;;;;;28.97;17.27;;;17.00;95.10;;;;;;5055438;28;20479;-59
2023/06/10 05:21:45;;;;;;;28.27;17.80;;;17.10;95.50;;;;;;5052416;28;20544;-59
2023/06/10 05:24:12;;;;;;;34.40;18.73;;;17.20;95.40;;;;;;5057433;28;20491;-59
2023/06/10 05:26:39;;;;;;;29.60;18.43;;;17.40;95.40;;;;;;5055805;28;20479;-59
2023/06/10 05:29:05;;;;;;;31.47;18.70;;;17.60;95.60;;;;;;5054747;28;20478;-59
2023/06/10 05:31:32;;;;;;;41.70;20.27;;;17.70;95.70;;;;;;5055717;28;20886;-59
2023/06/10 05:33:59;;;;;;;35.73;18.33;;;17.90;95.50;;;;;;5056418;28;20490;-60
2023/06/10 05:36:26;;;;;;;49.10;21.73;;;18.10;94.50;;;;;;5054527;28;20514;-60
2023/06/10 05:38:55;;;;;;;27.23;16.70;;;18.30;94.80;;;;;;5056390;28;20489;-60
2023/06/10 05:41:21;;;;;;;43.57;18.27;;;18.40;94.90;;;;;;5051538;28;20474;-60
2023/06/10 05:43:48;;;;;;;27.70;16.17;;;18.60;93.70;;;;;;5055396;28;20486;-60
2023/06/10 05:46:15;;;;;;;33.30;18.20;;;18.70;93.10;;;;;;5055363;28;22897;-60
2023/06/10 05:48:42;;;;;;;26.23;15.07;;;18.90;93.90;;;;;;5055617;28;20687;-60
2023/06/10 05:51:10;;;;;;;31.30;17.73;;;19.00;93.70;;;;;;5056542;28;20496;-60
2023/06/10 05:53:38;;;;;;;29.90;18.60;;;19.10;93.20;;;;;;5044024;28;20517;-60
2023/06/10 05:56:06;;;;;;;33.03;18.47;;;19.20;94.00;;;;;;5055966;28;20504;-60
2023/06/10 05:58:33;;;;;;;37.23;20.30;;;19.30;94.10;;;;;;5053596;28;20477;-60
2023/06/10 06:01:00;;;;;;;28.13;16.93;;;19.40;94.20;;;;;;5056284;28;20491;-60
2023/06/10 06:03:28;;;;;;;40.43;20.40;;;19.50;94.20;;;;;;5057778;28;21371;-60
2023/06/10 06:05:55;;;;;;;34.63;20.40;;;19.60;95.30;;;;;;5057079;28;21129;-60
2023/06/10 06:08:21;;;;;;;30.30;19.17;;;19.70;94.60;;;;;;5056290;28;20507;-60
2023/06/10 06:10:48;;;;;;;30.77;17.50;;;19.90;94.70;;;;;;5056451;28;20764;-60
2023/06/10 06:13:16;;;;;;;28.53;17.10;;;20.00;94.40;;;;;;5055497;28;20483;-60
2023/06/10 06:15:43;;;;;;;28.13;17.73;;;20.10;94.00;;;;;;5054898;28;20484;-60
2023/06/10 06:18:10;;;;;;;31.43;17.30;;;20.20;93.90;;;;;;5056030;28;21015;-60
2023/06/10 06:20:37;;;;;;;26.23;17.80;;;20.40;93.70;;;;;;5054182;28;20573;-60
2023/06/10 06:23:04;;;;;;;28.33;17.73;;;20.50;93.20;;;;;;5056737;28;20485;-60
2023/06/10 06:25:30;;;;;;;29.60;18.20;;;20.70;94.00;;;;;;5053857;28;20488;-60
2023/06/10 06:27:57;;;;;;;35.33;18.57;;;20.80;93.50;;;;;;5052196;28;20485;-60
2023/06/10 06:30:25;;;;;;;48.80;23.27;;;20.90;93.20;;;;;;5054218;28;20852;-59
2023/06/10 06:32:52;;;;;;;22.33;14.60;;;21.10;93.10;;;;;;5056392;28;20481;-59
2023/06/10 06:35:19;;;;;;;35.83;19.37;;;21.20;92.70;;;;;;5053182;28;20480;-59
2023/06/10 06:37:46;;;;;;;34.60;18.47;;;21.30;91.70;;;;;;5052312;28;20493;-59
2023/06/10 06:40:13;;;;;;;33.97;17.73;;;21.50;92.30;;;;;;5059488;28;20548;-60
2023/06/10 06:42:40;;;;;;;24.10;16.40;;;21.60;90.90;;;;;;5051551;28;20469;-59
2023/06/10 06:45:08;;;;;;;28.70;15.73;;;21.80;91.30;;;;;;5053473;28;20484;-59
2023/06/10 06:47:36;;;;;;;24.47;17.60;;;21.90;90.80;;;;;;5039141;28;20472;-59
2023/06/10 06:50:03;;;;;;;31.10;17.90;;;22.10;90.80;;;;;;5054403;28;20479;-60
2023/06/10 06:52:30;;;;;;;33.43;17.93;;;22.20;90.90;;;;;;5055083;28;20479;-60
2023/06/10 06:54:57;;;;;;;30.53;17.00;;;22.50;90.30;;;;;;5054115;28;20479;-59
2023/06/10 06:57:24;;;;;;;43.20;21.40;;;22.70;90.20;;;;;;5052417;28;20796;-59
2023/06/10 06:59:50;;;;;;;26.00;15.70;;;22.80;90.10;;;;;;5054406;28;21084;-59
2023/06/10 07:02:18;;;;;;;28.40;16.60;;;23.10;89.30;;;;;;5054690;28;20501;-60
2023/06/10 07:04:48;;;;;;;26.50;16.40;;;23.40;90.00;;;;;;5042390;28;20612;-60
2023/06/10 07:07:15;;;;;;;22.30;15.37;;;23.70;89.50;;;;;;5042462;28;20809;-60
2023/06/10 07:09:42;;;;;;;20.23;13.73;;;25.70;90.20;;;;;;5039660;28;20564;-60
2023/06/10 07:12:10;;;;;;;21.40;13.63;;;24.20;87.70;;;;;;5037678;28;21014;-60
2023/06/10 07:14:37;;;;;;;22.27;13.80;;;;;;;;;;5043257;28;20486;-60
2023/06/10 07:17:04;;;;;;;22.53;14.97;;;24.70;87.50;;;;;;5050251;28;21434;-60
2023/06/10 07:19:31;;;;;;;28.93;17.60;;;24.90;86.50;;;;;;5045393;28;20512;-60
2023/06/10 07:21:59;;;;;;;18.97;13.83;;;25.20;86.50;;;;;;5043249;28;20471;-60
2023/06/10 07:24:26;;;;;;;28.10;17.10;;;25.40;85.40;;;;;;5047099;28;20479;-60
2023/06/10 07:26:53;;;;;;;20.23;14.03;;;25.60;85.70;;;;;;5059646;28;20485;-60
2023/06/10 07:29:19;;;;;;;24.80;16.07;;;25.90;85.30;;;;;;5053062;28;20967;-60
2023/06/10 07:31:46;;;;;;;19.53;13.47;;;26.10;84.00;;;;;;5054125;28;21042;-61
2023/06/10 07:34:13;;;;;;;18.60;13.47;;;26.20;84.50;;;;;;5054759;28;20482;-60
2023/06/10 07:36:40;;;;;;;14.03;10.87;;;;;;;;;;5048935;28;21030;-61
2023/06/10 07:39:08;;;;;;;18.53;13.10;;;26.50;83.90;;;;;;5054358;28;20801;-61
2023/06/10 07:41:35;;;;;;;19.40;12.63;;;26.70;82.40;;;;;;5052160;28;20478;-61
2023/06/10 07:44:02;;;;;;;24.77;12.30;;;26.80;81.80;;;;;;5053363;28;20485;-61
2023/06/10 07:46:29;;;;;;;23.30;14.07;;;26.90;79.90;;;;;;5052560;28;20497;-60
2023/06/10 07:48:56;;;;;;;13.80;10.63;;;27.00;80.50;;;;;;5054037;28;20470;-61
2023/06/10 07:51:23;;;;;;;22.40;14.40;;;27.10;79.50;;;;;;5039474;28;20481;-61
2023/06/10 07:53:50;;;;;;;16.23;10.37;;;27.20;78.10;;;;;;5043743;28;20495;-61
2023/06/10 07:56:18;;;;;;;20.57;11.57;;;27.30;77.90;;;;;;5052128;28;20479;-61
2023/06/10 07:58:45;;;;;;;11.20;8.67;;;27.50;79.20;;;;;;5035953;28;20481;-61
2023/06/10 08:01:12;;;;;;;19.30;11.50;;;27.50;77.60;;;;;;5045670;28;20456;-61
2023/06/10 08:03:38;;;;;;;11.70;8.43;;;27.70;77.70;;;;;;5053592;28;21217;-61
2023/06/10 08:06:06;;;;;;;13.40;8.60;;;27.90;75.40;;;;;;5049411;28;20722;-60
2023/06/10 08:08:34;;;;;;;20.33;11.20;;;27.90;75.90;;;;;;5053397;28;20474;-61
2023/06/10 08:11:01;;;;;;;11.00;7.97;;;28.10;76.90;;;;;;5054076;28;20485;-60
2023/06/10 08:13:29;;;;;;;29.77;15.10;;;28.20;76.50;;;;;;5050454;28;21119;-61
2023/06/10 08:15:56;;;;;;;14.73;9.40;;;28.20;71.30;;;;;;5052136;28;20904;-61
2023/06/10 08:18:23;;;;;;;13.73;9.57;;;28.30;74.80;;;;;;5052651;28;20483;-61
2023/06/10 08:20:49;;;;;;;17.80;8.97;;;28.40;71.90;;;;;;5054712;28;20470;-61
2023/06/10 08:23:16;;;;;;;16.13;10.77;;;28.40;73.10;;;;;;5053975;28;20490;-62
2023/06/10 08:25:43;;;;;;;9.17;7.80;;;28.40;72.20;;;;;;5052301;28;20493;-62
2023/06/10 08:28:10;;;;;;;19.03;8.83;;;27.50;72.50;;;;;;5053430;28;20987;-62
2023/06/10 08:30:38;;;;;;;13.20;9.20;;;28.50;71.60;;;;;;5052098;28;20994;-62
2023/06/10 08:33:05;;;;;;;16.10;10.03;;;28.50;71.80;;;;;;5052073;28;20833;-62
2023/06/10 08:35:32;;;;;;;19.73;12.53;;;28.60;73.20;;;;;;5053588;28;20457;-62
2023/06/10 08:37:58;;;;;;;16.23;10.50;;;28.60;71.70;;;;;;5052355;28;20470;-62
2023/06/10 08:40:25;;;;;;;18.40;12.40;;;28.60;71.80;;;;;;5053097;28;20474;-62
2023/06/10 08:43:01;;;;;;;24.53;12.83;;;28.60;71.70;;;;;;5052265;28;20779;-61
2023/06/10 08:45:32;;;;;;;23.57;13.60;;;28.60;70.90;;;;;;5051588;28;20478;-61
2023/06/10 08:48:01;;;;;;;13.77;10.40;;;28.80;74.10;;;;;;5052297;28;20500;-61
2023/06/10 08:50:30;;;;;;;17.63;8.57;;;28.80;72.00;;;;;;5052885;28;20457;-61
2023/06/10 08:52:59;;;;;;;13.30;10.47;;;29.00;71.30;;;;;;5052480;28;20461;-61
2023/06/10 08:55:31;;;;;;;22.83;14.60;;;29.10;73.70;;;;;;5053456;28;20496;-61
2023/06/10 08:57:59;;;;;;;20.53;12.37;;;29.30;73.20;;;;;;5048979;28;20993;-61
2023/06/10 09:00:27;;;;;;;25.50;13.83;;;29.30;71.80;;;;;;5053686;28;20489;-61
2023/06/10 09:02:54;;;;;;;17.07;10.20;;;29.40;70.10;;;;;;5052091;28;20490;-61
2023/06/10 09:05:23;;;;;;;18.00;12.50;;;29.50;69.20;;;;;;5055898;28;20515;-61
2023/06/10 09:07:52;;;;;;;21.37;12.50;;;29.50;71.80;;;;;;5056415;28;20490;-61
2023/06/10 09:10:19;;;;;;;13.90;9.37;;;29.50;69.00;;;;;;5056950;28;20853;-61
2023/06/10 09:12:45;;;;;;;19.53;11.90;;;29.40;69.50;;;;;;5056043;28;20604;-62
2023/06/10 09:15:14;;;;;;;16.17;11.57;;;29.50;70.30;;;;;;5056967;28;21045;-62
2023/06/10 09:17:41;;;;;;;14.27;8.50;;;29.60;70.20;;;;;;5055134;28;20488;-62
2023/06/10 09:20:09;;;;;;;9.63;8.73;;;29.60;69.30;;;;;;5056445;28;20491;-61
2023/06/10 09:22:37;;;;;;;31.97;10.93;;;29.70;70.70;;;;;;5056164;28;20471;-61
2023/06/10 09:25:05;;;;;;;20.33;10.00;;;29.80;70.80;;;;;;5053833;28;20506;-62
2023/06/10 09:27:32;;;;;;;15.13;11.23;;;29.90;70.10;;;;;;5055606;28;20817;-62
2023/06/10 09:29:59;;;;;;;25.27;10.47;;;29.90;67.70;;;;;;5056860;28;20854;-62
2023/06/10 09:32:28;;;;;;;14.00;10.83;;;29.90;68.30;;;;;;5055396;28;20894;-62
2023/06/10 09:34:54;;;;;;;14.77;10.50;;;29.90;69.50;;;;;;5057822;28;21002;-62
2023/06/10 09:37:22;;;;;;;18.37;12.67;;;29.90;68.80;;;;;;5054846;28;20482;-62
2023/06/10 09:40:04;;;;;;;11.57;8.90;;;29.90;67.60;;;;;;5054956;28;20493;-62
2023/06/10 09:42:34;;;;;;;10.67;9.60;;;;;;;;;;5044139;28;20859;-62
2023/06/10 09:45:01;;;;;;;13.73;8.83;;;29.90;68.90;;;;;;5055977;28;20551;-62
2023/06/10 09:47:28;;;;;;;10.00;8.67;;;30.00;67.90;;;;;;5054259;28;20475;-62
2023/06/10 09:49:54;;;;;;;10.83;9.73;;;29.90;67.90;;;;;;5046781;28;20485;-62
2023/06/10 09:52:24;;;;;;;19.57;11.07;;;30.10;70.00;;;;;;5054156;28;20487;-62
2023/06/10 09:54:52;;;;;;;13.97;10.80;;;30.30;71.30;;;;;;5056104;28;20971;-62
2023/06/10 09:57:20;;;;;;;13.17;10.40;;;30.50;70.80;;;;;;5046857;28;20987;-62
2023/06/10 09:59:47;;;;;;;14.40;8.90;;;30.60;70.60;;;;;;5053919;28;21180;-62
2023/06/10 10:02:17;;;;;;;9.37;8.07;;;30.60;69.00;;;;;;5057015;28;20478;-63
2023/06/10 10:04:45;;;;;;;8.47;7.20;;;30.60;67.40;;;;;;5052781;28;20870;-62
2023/06/10 10:07:12;;;;;;;10.03;9.00;;;30.60;67.30;;;;;;5055060;28;20567;-62
2023/06/10 10:09:39;;;;;;;11.33;7.97;;;30.50;66.80;;;;;;5053909;28;20449;-62
2023/06/10 10:12:10;;;;;;;9.40;6.90;;;30.70;67.50;;;;;;5044350;28;20538;-62
2023/06/10 10:14:39;;;;;;;8.40;7.67;;;30.80;69.80;;;;;;5050580;28;20487;-62
2023/06/10 10:17:11;;;;;;;11.00;9.93;;;30.80;65.80;;;;;;5040360;28;20484;-61
2023/06/10 10:19:44;;;;;;;20.10;9.40;;;30.80;66.70;;;;;;5052755;28;20482;-62
2023/06/10 10:22:16;;;;;;;7.87;7.10;;;30.90;66.20;;;;;;5044251;28;20825;-62
2023/06/10 10:24:47;;;;;;;8.33;7.63;;;30.90;66.30;;;;;;5046283;28;20803;-61
2023/06/10 10:27:19;;;;;;;11.50;9.57;;;31.00;68.80;;;;;;5059852;28;20473;-61
2023/06/10 10:29:49;;;;;;;9.80;8.37;;;31.10;69.20;;;;;;5053084;28;20464;-61
2023/06/10 10:32:17;;;;;;;23.67;9.37;;;31.20;66.70;;;;;;5054693;28;20454;-61
2023/06/10 10:34:51;;;;;;;8.00;7.30;;;31.30;65.60;;;;;;5055279;28;20465;-61
2023/06/10 10:37:19;;;;;;;11.30;9.20;;;31.30;67.00;;;;;;5053106;28;20450;-61
2023/06/10 10:39:45;;;;;;;10.03;7.57;;;31.50;64.60;;;;;;5052741;28;20488;-61
2023/06/10 10:42:14;;;;;;;10.50;7.63;;;31.50;67.00;;;;;;5050204;28;20489;-61
2023/06/10 10:44:41;;;;;;;13.60;8.13;;;31.70;65.30;;;;;;5054917;28;20581;-61
2023/06/10 10:47:11;;;;;;;17.60;9.37;;;31.40;62.50;;;;;;5054422;28;20668;-62
2023/06/10 10:49:40;;;;;;;11.27;9.73;;;31.30;64.30;;;;;;5051573;28;20442;-62
2023/06/10 10:52:12;;;;;;;12.53;8.37;;;31.10;64.90;;;;;;5052835;28;20545;-62
2023/06/10 10:54:46;;;;;;;8.20;7.50;;;31.10;65.00;;;;;;5053396;28;20457;-61
2023/06/10 10:57:18;;;;;;;8.07;7.37;;;31.10;63.30;;;;;;5042855;28;20478;-62
2023/06/10 11:00:04;;;;;;;8.67;8.00;;;31.10;63.00;;;;;;5051693;28;20832;-62
2023/06/10 11:02:39;;;;;;;14.93;8.83;;;31.30;66.90;;;;;;5052836;28;20817;-62
2023/06/10 11:05:07;;;;;;;9.00;8.20;;;31.40;67.20;;;;;;5051796;28;20486;-62
2023/06/10 11:07:36;;;;;;;14.63;8.83;;;31.30;65.30;;;;;;5052486;28;20482;-62
2023/06/10 11:10:04;;;;;;;15.83;7.80;;;31.20;62.60;;;;;;5051392;28;20478;-62
2023/06/10 11:12:51;;;;;;;9.47;8.50;;;31.10;65.50;;;;;;5053726;28;21016;-62
2023/06/10 11:15:23;;;;;;;14.97;8.27;;;31.10;64.80;;;;;;5032460;28;20483;-61
2023/06/10 11:18:15;;;;;;;8.17;7.37;;;31.20;62.40;;;;;;5049228;28;20456;-62
2023/06/10 11:20:46;;;;;;;9.97;8.00;;;31.40;65.50;;;;;;5053340;28;20743;-62
2023/06/10 11:23:26;;;;;;;7.60;7.03;;;31.50;62.80;;;;;;5053505;28;20486;-62
2023/06/10 11:26:09;;;;;;;12.90;7.70;;;31.50;63.70;;;;;;5052323;28;20667;-62
2023/06/10 11:28:36;;;;;;;10.63;8.60;;;31.50;63.50;;;;;;5050103;28;21010;-62
2023/06/10 11:31:03;;;;;;;14.13;6.77;;;31.50;62.20;;;;;;5053551;28;20859;-62
2023/06/10 11:33:32;;;;;;;9.70;8.23;;;31.70;64.30;;;;;;5051427;28;20479;-62
2023/06/10 11:35:59;;;;;;;9.17;7.50;;;31.60;62.40;;;;;;5052572;28;20470;-63
2023/06/10 11:38:27;;;;;;;17.27;8.93;;;31.80;60.70;;;;;;5050735;28;20457;-62
2023/06/10 11:40:54;;;;;;;10.23;7.63;;;31.80;62.20;;;;;;5053365;28;20989;-63
2023/06/10 11:43:21;;;;;;;8.97;8.10;;;32.00;62.50;;;;;;5051672;28;20458;-62
2023/06/10 11:45:47;;;;;;;8.93;7.20;;;32.10;61.80;;;;;;5052863;28;20458;-62
2023/06/10 11:48:14;;;;;;;9.80;7.83;;;31.80;58.60;;;;;;5054266;28;20489;-62
2023/06/10 11:50:42;;;;;;;12.63;6.57;;;31.90;62.10;;;;;;5039529;28;20532;-62
2023/06/10 11:53:09;;;;;;;12.33;7.50;;;32.20;61.80;;;;;;5053425;28;20494;-62
2023/06/10 11:55:44;;;;;;;9.20;8.23;;;32.10;62.10;;;;;;5053057;28;20962;-62
2023/06/10 11:58:15;;;;;;;9.50;6.60;;;32.30;61.40;;;;;;5052659;28;20956;-62
2023/06/10 12:00:46;;;;;;;7.47;6.97;;;32.10;58.60;;;;;;5048215;28;20675;-62
2023/06/10 12:03:13;;;;;;;7.97;7.20;;;31.90;59.60;;;;;;5051706;28;20471;-63
2023/06/10 12:05:54;;;;;;;9.40;7.00;;;32.10;61.70;;;;;;5052630;28;20452;-62
2023/06/10 12:08:20;;;;;;;8.03;7.37;;;32.40;60.90;;;;;;5040827;28;20480;-62
2023/06/10 12:10:48;;;;;;;7.13;6.53;;;32.50;63.40;;;;;;5041529;28;20450;-63
2023/06/10 12:13:15;;;;;;;7.87;7.17;;;32.70;63.30;;;;;;5039193;28;20497;-62
2023/06/10 12:15:42;;;;;;;8.37;7.57;;;32.70;60.70;;;;;;5050896;28;20775;-63
2023/06/10 12:18:16;;;;;;;7.47;6.43;;;32.90;62.70;;;;;;5052896;28;21007;-62
2023/06/10 12:20:44;;;;;;;9.07;6.93;;;32.90;63.30;;;;;;5052969;28;20494;-63
2023/06/10 12:23:12;;;;;;;7.87;7.07;;;33.00;61.20;;;;;;5053763;28;20475;-62
2023/06/10 12:25:39;;;;;;;7.00;5.90;;;33.30;63.20;;;;;;5053510;28;20469;-63
2023/06/10 12:28:07;;;;;;;7.27;6.67;;;33.10;58.50;;;;;;5052344;28;20457;-63
2023/06/10 12:30:34;;;;;;;7.80;7.13;;;32.60;57.20;;;;;;5041192;28;21081;-62
2023/06/10 12:33:00;;;;;;;13.10;9.33;;;32.20;57.20;;;;;;5052970;28;20590;-63
2023/06/10 12:35:28;;;;;;;10.57;9.50;;;32.10;58.80;;;;;;5053446;28;20487;-62
2023/06/10 12:37:59;;;;;;;15.40;10.37;;;32.00;57.20;;;;;;5052826;28;20844;-62